createdAt,value
2019-02-20T00:08:32.753Z,5.61
2019-02-20T00:18:38.745Z,5.51
2019-02-20T00:28:44.676Z,5.20
2019-02-20T00:38:50.591Z,5.28
2019-02-20T00:48:58.004Z,5.18
2019-02-20T00:59:03.922Z,5.15
2019-02-20T01:09:09.798Z,5.19
2019-02-20T01:19:15.840Z,5.16
2019-02-20T01:29:21.630Z,5.35
2019-02-20T01:39:27.696Z,5.29
2019-02-20T01:49:34.110Z,5.26
2019-02-20T01:59:40.440Z,5.16
2019-02-20T02:09:46.453Z,5.16
2019-02-20T02:19:52.295Z,5.14
2019-02-20T02:29:58.293Z,5.13
2019-02-20T02:40:07.466Z,5.10
2019-02-20T02:50:13.203Z,5.02
2019-02-20T03:00:19.403Z,5.26
2019-02-20T03:10:25.482Z,5.23
2019-02-20T03:20:31.375Z,5.38
2019-02-20T03:30:37.092Z,5.61
2019-02-20T03:40:43.021Z,5.64
2019-02-20T03:50:55.877Z,5.79
2019-02-20T04:01:01.571Z,5.69
2019-02-20T04:11:07.372Z,5.86
2019-02-20T04:21:13.520Z,5.80
2019-02-20T04:31:19.381Z,5.80
2019-02-20T04:41:25.533Z,5.71
2019-02-20T04:51:31.236Z,5.74
2019-02-20T05:01:37.512Z,5.74
2019-02-20T05:11:43.567Z,5.61
2019-02-20T05:21:49.324Z,5.74
2019-02-20T05:31:55.337Z,5.91
2019-02-20T05:42:01.302Z,5.96
2019-02-20T05:52:07.116Z,6.09
2019-02-20T06:02:14.395Z,6.20
2019-02-20T06:12:20.288Z,6.29
2019-02-20T06:22:26.028Z,6.18
2019-02-20T06:32:32.007Z,6.17
2019-02-20T06:42:37.957Z,6.15
2019-02-20T06:52:45.559Z,6.29
2019-02-20T07:02:51.249Z,6.38
2019-02-20T07:13:00.181Z,6.44
2019-02-20T07:23:21.352Z,6.57
2019-02-20T07:33:27.285Z,6.73
2019-02-20T07:43:33.432Z,6.86
2019-02-20T07:53:39.196Z,6.94
2019-02-20T08:03:45.046Z,7.19
2019-02-20T08:13:50.810Z,7.18
2019-02-20T08:23:56.501Z,7.21
2019-02-20T08:34:02.229Z,7.39
2019-02-20T08:44:10.379Z,7.39
2019-02-20T08:54:16.168Z,7.44
2019-02-20T09:04:21.877Z,7.53
2019-02-20T09:14:29.412Z,7.60
2019-02-20T09:24:35.118Z,7.90
2019-02-20T09:34:40.880Z,7.95
2019-02-20T09:44:47.027Z,7.95
2019-02-20T09:54:52.834Z,7.91
2019-02-20T10:04:58.529Z,8.10
2019-02-20T10:15:12.349Z,8.20
2019-02-20T10:25:18.127Z,8.35
2019-02-20T10:35:23.725Z,8.59
2019-02-20T10:45:29.415Z,8.66
2019-02-20T10:55:35.221Z,8.56
2019-02-20T11:05:41.034Z,8.54
2019-02-20T11:15:46.907Z,8.77
2019-02-20T11:25:52.544Z,8.84
2019-02-20T11:35:59.604Z,8.89
2019-02-20T11:46:05.871Z,9.09
2019-02-20T11:56:12.353Z,9.21
2019-02-20T12:06:18.305Z,9.24
2019-02-20T12:16:24.208Z,9.11
2019-02-20T12:26:35.140Z,9.18
2019-02-20T12:36:37.357Z,9.60
2019-02-20T12:46:43.152Z,9.55
2019-02-20T12:56:48.955Z,9.87
2019-02-20T13:06:59.579Z,9.84
2019-02-20T13:17:02.105Z,9.73
2019-02-20T13:27:10.268Z,9.78
2019-02-20T13:37:17.629Z,9.75
2019-02-20T13:47:25.809Z,9.94
2019-02-20T13:57:31.899Z,10.02
2019-02-20T14:07:39.493Z,9.89
2019-02-20T14:17:45.310Z,10.04
2019-02-20T14:27:51.191Z,9.90
2019-02-20T14:37:59.635Z,9.94
2019-02-20T14:48:05.490Z,9.98
2019-02-20T14:58:11.230Z,9.90
2019-02-20T15:08:17.709Z,9.81
2019-02-20T15:18:23.525Z,9.90
2019-02-20T15:28:29.313Z,9.83
2019-02-20T15:38:35.453Z,9.82
2019-02-20T15:48:55.877Z,9.66
2019-02-20T15:59:01.671Z,9.69
2019-02-20T16:09:08.546Z,9.68
2019-02-20T16:19:15.853Z,9.62
2019-02-20T16:29:21.657Z,9.50
2019-02-20T16:39:27.811Z,9.49
2019-02-20T16:49:33.663Z,9.45
2019-02-20T16:59:39.385Z,9.36
2019-02-20T17:09:45.260Z,9.32
2019-02-20T17:19:51.113Z,9.41
2019-02-20T17:29:57.450Z,9.35
2019-02-20T17:40:03.077Z,9.20
2019-02-20T17:50:11.688Z,9.29
2019-02-20T18:00:20.600Z,9.20
2019-02-20T18:10:26.229Z,9.16
2019-02-20T18:20:32.060Z,9.15
2019-02-20T18:30:38.013Z,9.14
2019-02-20T18:40:46.154Z,9.06
2019-02-20T18:50:53.186Z,9.02
2019-02-20T19:00:59.213Z,8.98
2019-02-20T19:11:08.206Z,9.00
2019-02-20T19:21:33.926Z,9.05
2019-02-20T19:31:42.693Z,9.00
2019-02-20T19:42:00.511Z,8.93
2019-02-20T19:52:32.390Z,8.90
2019-02-20T20:02:47.121Z,8.87
2019-02-20T20:13:24.927Z,8.61
2019-02-20T20:23:50.177Z,8.63
2019-02-20T20:34:05.078Z,8.53
2019-02-20T20:44:29.546Z,8.55
2019-02-20T20:54:44.865Z,8.51
2019-02-20T21:05:14.834Z,8.46
2019-02-20T21:15:26.586Z,8.64
2019-02-20T21:26:09.575Z,8.56
2019-02-20T21:36:18.592Z,8.53
2019-02-20T21:46:45.187Z,8.28
2019-02-20T21:56:57.637Z,8.22
2019-02-20T22:07:40.921Z,8.20
2019-02-20T22:17:58.660Z,8.17
2019-02-20T22:28:14.383Z,8.16
2019-02-20T22:38:29.301Z,8.26
2019-02-20T22:48:41.260Z,8.07
2019-02-20T22:59:11.851Z,8.06
2019-02-20T23:09:44.579Z,8.09
2019-02-20T23:19:50.434Z,8.08
2019-02-20T23:29:56.482Z,8.00
2019-02-20T23:40:04.652Z,8.01
2019-02-20T23:50:09.524Z,8.06
